Time,TemperatureF,DewpointF,PressureIn,WindDirection,WindDirectionDegrees,WindSpeedMPH,WindSpeedGustMPH,Humidity,HourlyPrecipIn,Conditions,Clouds,dailyrainin,SoftwareType,DateUTC
2013-03-09 00:02:00,39.6,29.0,30.27,NNW,344,4.0,9.0,65,0.00,,,0.00,weatherlink.com 1.10,2013-03-09 05:02:00,
2013-03-09 00:17:00,39.3,28.0,30.28,NNW,342,4.0,9.0,65,0.00,,,0.00,weatherlink.com 1.10,2013-03-09 05:17:00,
2013-03-09 00:33:00,39.1,29.0,30.29,North,5,5.0,11.0,66,0.00,,,0.00,weatherlink.com 1.10,2013-03-09 05:33:00,
2013-03-09 00:48:00,38.9,28.0,30.29,North,350,4.0,12.0,66,0.00,,,0.00,weatherlink.com 1.10,2013-03-09 05:48:00,
2013-03-09 01:03:00,38.6,28.0,30.29,NNW,337,7.0,10.0,66,0.00,,,0.00,weatherlink.com 1.10,2013-03-09 06:03:00,
2013-03-09 01:18:00,38.6,28.0,30.30,North,360,7.0,11.0,66,0.00,,,0.00,weatherlink.com 1.10,2013-03-09 06:18:00,
2013-03-09 01:34:00,38.3,28.0,30.29,NNE,16,2.0,9.0,66,0.00,,,0.00,weatherlink.com 1.10,2013-03-09 06:34:00,
2013-03-09 01:48:00,37.9,28.0,30.30,NNW,344,3.0,7.0,67,0.00,,,0.00,weatherlink.com 1.10,2013-03-09 06:48:00,
2013-03-09 02:03:00,37.7,28.0,30.30,NNW,347,5.0,8.0,67,0.00,,,0.00,weatherlink.com 1.10,2013-03-09 07:03:00,
2013-03-09 02:18:00,37.5,27.0,30.30,NNW,329,1.0,6.0,67,0.00,,,0.00,weatherlink.com 1.10,2013-03-09 07:18:00,
2013-03-09 02:33:00,37.4,27.0,30.30,NNW,338,2.0,9.0,67,0.00,,,0.00,weatherlink.com 1.10,2013-03-09 07:33:00,
2013-03-09 02:48:00,37.2,27.0,30.29,NW,317,1.0,9.0,67,0.00,,,0.00,weatherlink.com 1.10,2013-03-09 07:48:00,
2013-03-09 03:03:00,36.8,27.0,30.29,NW,312,4.0,9.0,67,0.00,,,0.00,weatherlink.com 1.10,2013-03-09 08:03:00,
2013-03-09 03:18:00,36.7,27.0,30.29,NNW,348,3.0,9.0,67,0.00,,,0.00,weatherlink.com 1.10,2013-03-09 08:18:00,
2013-03-09 03:33:00,36.4,27.0,30.29,NNW,329,3.0,9.0,68,0.00,,,0.00,weatherlink.com 1.10,2013-03-09 08:33:00,
2013-03-09 03:48:00,36.2,27.0,30.29,NNW,346,6.0,8.0,68,0.00,,,0.00,weatherlink.com 1.10,2013-03-09 08:48:00,
2013-03-09 04:03:00,35.7,26.0,30.29,NNE,13,3.0,9.0,69,0.00,,,0.00,weatherlink.com 1.10,2013-03-09 09:03:00,
2013-03-09 04:18:00,35.6,26.0,30.29,North,350,2.0,9.0,69,0.00,,,0.00,weatherlink.com 1.10,2013-03-09 09:18:00,
2013-03-09 04:33:00,35.2,26.0,30.29,North,360,1.0,8.0,70,0.00,,,0.00,weatherlink.com 1.10,2013-03-09 09:33:00,
2013-03-09 04:48:00,35.4,26.0,30.31,North,5,2.0,10.0,69,0.00,,,0.00,weatherlink.com 1.10,2013-03-09 09:48:00,
2013-03-09 05:03:00,35.3,26.0,30.31,NNW,345,4.0,10.0,69,0.00,,,0.00,weatherlink.com 1.10,2013-03-09 10:03:00,
2013-03-09 05:18:00,34.9,26.0,30.31,North,355,3.0,9.0,70,0.00,,,0.00,weatherlink.com 1.10,2013-03-09 10:18:00,
2013-03-09 05:33:00,34.6,26.0,30.30,NW,325,4.0,9.0,70,0.00,,,0.00,weatherlink.com 1.10,2013-03-09 10:33:00,
2013-03-09 05:48:00,34.7,26.0,30.31,NNE,13,6.0,11.0,70,0.00,,,0.00,weatherlink.com 1.10,2013-03-09 10:48:00,
2013-03-09 06:03:00,34.5,26.0,30.32,North,9,7.0,12.0,70,0.00,,,0.00,weatherlink.com 1.10,2013-03-09 11:03:00,
2013-03-09 06:18:00,34.4,26.0,30.32,North,349,2.0,10.0,70,0.00,,,0.00,weatherlink.com 1.10,2013-03-09 11:18:00,
2013-03-09 06:33:00,34.3,25.0,30.32,NW,326,4.0,9.0,70,0.00,,,0.00,weatherlink.com 1.10,2013-03-09 11:33:00,
2013-03-09 06:48:00,34.2,25.0,30.32,North,9,6.0,10.0,70,0.00,,,0.00,weatherlink.com 1.10,2013-03-09 11:48:00,
2013-03-09 07:03:00,34.5,25.0,30.33,NNW,346,4.0,10.0,69,0.00,,,0.00,weatherlink.com 1.10,2013-03-09 12:03:00,
2013-03-09 07:18:00,34.9,25.0,30.33,NW,305,4.0,11.0,68,0.00,,,0.00,weatherlink.com 1.10,2013-03-09 12:18:00,
2013-03-09 07:33:00,35.5,25.0,30.34,NNW,346,5.0,11.0,66,0.00,,,0.00,weatherlink.com 1.10,2013-03-09 12:33:00,
2013-03-09 07:48:00,36.2,25.0,30.34,NNW,342,3.0,9.0,64,0.00,,,0.00,weatherlink.com 1.10,2013-03-09 12:48:00,
2013-03-09 08:04:00,36.9,25.0,30.34,NNE,20,2.0,11.0,62,0.00,,,0.00,weatherlink.com 1.10,2013-03-09 13:04:00,
2013-03-09 08:19:00,37.7,25.0,30.35,NNE,27,3.0,10.0,60,0.00,,,0.00,weatherlink.com 1.10,2013-03-09 13:19:00,
2013-03-09 08:34:00,38.6,25.0,30.35,NNW,329,4.0,12.0,58,0.00,,,0.00,weatherlink.com 1.10,2013-03-09 13:34:00,
2013-03-09 08:49:00,39.5,24.0,30.35,NNE,25,2.0,12.0,55,0.00,,,0.00,weatherlink.com 1.10,2013-03-09 13:49:00,
2013-03-09 09:04:00,40.0,24.0,30.36,North,355,5.0,13.0,54,0.00,,,0.00,weatherlink.com 1.10,2013-03-09 14:04:00,
2013-03-09 09:19:00,40.7,25.0,30.37,NNW,330,4.0,11.0,54,0.00,,,0.00,weatherlink.com 1.10,2013-03-09 14:19:00,
2013-03-09 09:34:00,41.5,25.0,30.37,NNW,335,4.0,14.0,52,0.00,,,0.00,weatherlink.com 1.10,2013-03-09 14:34:00,
2013-03-09 09:49:00,42.2,25.0,30.36,North,355,4.0,10.0,51,0.00,,,0.00,weatherlink.com 1.10,2013-03-09 14:49:00,
2013-03-09 10:04:00,43.2,25.0,30.36,North,355,6.0,9.0,49,0.00,,,0.00,weatherlink.com 1.10,2013-03-09 15:04:00,
2013-03-09 10:19:00,44.5,26.0,30.35,NNW,328,2.0,9.0,48,0.00,,,0.00,weatherlink.com 1.10,2013-03-09 15:19:00,
2013-03-09 10:34:00,45.6,25.0,30.35,WNW,303,3.0,9.0,45,0.00,,,0.00,weatherlink.com 1.10,2013-03-09 15:34:00,
2013-03-09 10:49:00,46.6,25.0,30.35,North,355,2.0,6.0,43,0.00,,,0.00,weatherlink.com 1.10,2013-03-09 15:49:00,
2013-03-09 11:04:00,47.8,26.0,30.34,NNW,338,4.0,7.0,42,0.00,,,0.00,weatherlink.com 1.10,2013-03-09 16:04:00,
2013-03-09 11:19:00,49.0,25.0,30.34,NNW,342,5.0,7.0,39,0.00,,,0.00,weatherlink.com 1.10,2013-03-09 16:19:00,
2013-03-09 11:34:00,49.7,25.0,30.33,NE,55,4.0,7.0,38,0.00,,,0.00,weatherlink.com 1.10,2013-03-09 16:34:00,
2013-03-09 11:49:00,50.5,24.0,30.33,NNW,338,0.0,9.0,36,0.00,,,0.00,weatherlink.com 1.10,2013-03-09 16:49:00,
2013-03-09 12:04:00,51.4,24.0,30.33,NNE,24,4.0,6.0,34,0.00,,,0.00,weatherlink.com 1.10,2013-03-09 17:04:00,
2013-03-09 12:19:00,52.0,24.0,30.32,NE,37,3.0,6.0,34,0.00,,,0.00,weatherlink.com 1.10,2013-03-09 17:19:00,
2013-03-09 12:34:00,53.0,24.0,30.32,NNW,333,4.0,9.0,33,0.00,,,0.00,weatherlink.com 1.10,2013-03-09 17:34:00,
2013-03-09 12:49:00,53.7,24.0,30.32,WNW,302,4.0,7.0,31,0.00,,,0.00,weatherlink.com 1.10,2013-03-09 17:49:00,
2013-03-09 13:04:00,54.2,24.0,30.30,West,275,6.0,6.0,31,0.00,,,0.00,weatherlink.com 1.10,2013-03-09 18:04:00,
2013-03-09 13:19:00,55.1,23.0,30.30,NW,321,3.0,8.0,29,0.00,,,0.00,weatherlink.com 1.10,2013-03-09 18:19:00,
2013-03-09 13:35:00,55.9,25.0,30.29,NW,311,1.0,7.0,30,0.00,,,0.00,weatherlink.com 1.10,2013-03-09 18:35:00,
2013-03-09 13:50:00,56.8,24.0,30.28,NNW,333,0.0,6.0,28,0.00,,,0.00,weatherlink.com 1.10,2013-03-09 18:50:00,
2013-03-09 14:05:00,57.6,21.0,30.28,NNW,340,6.0,7.0,24,0.00,,,0.00,weatherlink.com 1.10,2013-03-09 19:05:00,
2013-03-09 14:20:00,58.5,23.0,30.28,West,279,1.0,5.0,25,0.00,,,0.00,weatherlink.com 1.10,2013-03-09 19:20:00,
2013-03-09 14:50:00,57.9,24.0,30.28,WSW,246,4.0,6.0,27,0.00,,,0.00,weatherlink.com 1.10,2013-03-09 19:50:00,
2013-03-09 15:05:00,57.9,23.0,30.28,WNW,300,5.0,10.0,26,0.00,,,0.00,weatherlink.com 1.10,2013-03-09 20:05:00,
2013-03-09 15:20:00,57.8,24.0,30.28,NNW,331,7.0,9.0,27,0.00,,,0.00,weatherlink.com 1.10,2013-03-09 20:20:00,
2013-03-09 15:35:00,57.9,24.0,30.28,WNW,292,3.0,9.0,27,0.00,,,0.00,weatherlink.com 1.10,2013-03-09 20:35:00,
2013-03-09 15:50:00,58.3,23.0,30.27,WNW,286,0.0,6.0,26,0.00,,,0.00,weatherlink.com 1.10,2013-03-09 20:50:00,
2013-03-09 16:05:00,58.5,24.0,30.27,West,279,4.0,6.0,27,0.00,,,0.00,weatherlink.com 1.10,2013-03-09 21:05:00,
2013-03-09 16:20:00,58.5,24.0,30.27,NNW,336,1.0,6.0,27,0.00,,,0.00,weatherlink.com 1.10,2013-03-09 21:20:00,
2013-03-09 16:35:00,58.4,24.0,30.27,NW,324,3.0,6.0,27,0.00,,,0.00,weatherlink.com 1.10,2013-03-09 21:35:00,
2013-03-09 16:50:00,58.8,25.0,30.27,NNW,338,3.0,6.0,27,0.00,,,0.00,weatherlink.com 1.10,2013-03-09 21:50:00,
2013-03-09 17:05:00,59.0,25.0,30.27,WNW,302,3.0,5.0,27,0.00,,,0.00,weatherlink.com 1.10,2013-03-09 22:05:00,
2013-03-09 17:20:00,59.3,25.0,30.27,NW,317,1.0,3.0,27,0.00,,,0.00,weatherlink.com 1.10,2013-03-09 22:20:00,
2013-03-09 17:35:00,58.6,25.0,30.27,NNW,342,0.0,5.0,27,0.00,,,0.00,weatherlink.com 1.10,2013-03-09 22:35:00,
2013-03-09 17:50:00,57.8,24.0,30.27,NNW,343,1.0,5.0,27,0.00,,,0.00,weatherlink.com 1.10,2013-03-09 22:50:00,
2013-03-09 18:05:00,56.9,24.0,30.28,WNW,288,1.0,3.0,28,0.00,,,0.00,weatherlink.com 1.10,2013-03-09 23:05:00,
2013-03-09 18:20:00,56.1,25.0,30.27,WNW,288,0.0,1.0,30,0.00,,,0.00,weatherlink.com 1.10,2013-03-09 23:20:00,
2013-03-09 18:35:00,55.2,25.0,30.28,WNW,288,0.0,0.0,31,0.00,,,0.00,weatherlink.com 1.10,2013-03-09 23:35:00,
2013-03-09 18:50:00,54.4,24.0,30.28,WNW,288,0.0,1.0,31,0.00,,,0.00,weatherlink.com 1.10,2013-03-09 23:50:00,
2013-03-09 19:05:00,54.1,25.0,30.28,WNW,288,0.0,2.0,32,0.00,,,0.00,weatherlink.com 1.10,2013-03-10 00:05:00,
2013-03-09 19:20:00,53.8,24.0,30.28,WNW,288,0.0,1.0,32,0.00,,,0.00,weatherlink.com 1.10,2013-03-10 00:20:00,
2013-03-09 19:35:00,53.6,24.0,30.29,WNW,288,0.0,1.0,32,0.00,,,0.00,weatherlink.com 1.10,2013-03-10 00:35:00,
2013-03-09 19:50:00,53.2,25.0,30.29,WNW,288,0.0,1.0,33,0.00,,,0.00,weatherlink.com 1.10,2013-03-10 00:50:00,
2013-03-09 20:05:00,52.7,24.0,30.29,WNW,288,0.0,0.0,33,0.00,,,0.00,weatherlink.com 1.10,2013-03-10 01:05:00,
2013-03-09 20:20:00,52.3,25.0,30.29,WNW,288,0.0,1.0,34,0.00,,,0.00,weatherlink.com 1.10,2013-03-10 01:20:00,
2013-03-09 20:35:00,52.2,24.0,30.29,WNW,288,0.0,0.0,34,0.00,,,0.00,weatherlink.com 1.10,2013-03-10 01:35:00,
2013-03-09 20:50:00,51.3,24.0,30.30,WNW,288,0.0,0.0,35,0.00,,,0.00,weatherlink.com 1.10,2013-03-10 01:50:00,
2013-03-09 21:05:00,51.0,24.0,30.30,WNW,288,0.0,1.0,35,0.00,,,0.00,weatherlink.com 1.10,2013-03-10 02:05:00,
2013-03-09 21:20:00,51.2,24.0,30.30,WNW,288,0.0,0.0,35,0.00,,,0.00,weatherlink.com 1.10,2013-03-10 02:20:00,
2013-03-09 21:35:00,50.7,24.0,30.30,WNW,288,0.0,1.0,35,0.00,,,0.00,weatherlink.com 1.10,2013-03-10 02:35:00,
2013-03-09 21:50:00,50.6,24.0,30.31,WNW,288,0.0,0.0,35,0.00,,,0.00,weatherlink.com 1.10,2013-03-10 02:50:00,
2013-03-09 22:05:00,50.2,24.0,30.31,WNW,288,0.0,0.0,36,0.00,,,0.00,weatherlink.com 1.10,2013-03-10 03:05:00,
2013-03-09 22:20:00,49.8,24.0,30.31,WNW,288,0.0,0.0,36,0.00,,,0.00,weatherlink.com 1.10,2013-03-10 03:20:00,
2013-03-09 22:35:00,49.6,24.0,30.31,WNW,288,0.0,0.0,37,0.00,,,0.00,weatherlink.com 1.10,2013-03-10 03:35:00,
2013-03-09 22:50:00,49.0,24.0,30.30,WNW,288,0.0,0.0,38,0.00,,,0.00,weatherlink.com 1.10,2013-03-10 03:50:00,
2013-03-09 23:05:00,48.1,25.0,30.31,WNW,288,0.0,0.0,40,0.00,,,0.00,weatherlink.com 1.10,2013-03-10 04:05:00,
2013-03-09 23:20:00,47.5,25.0,30.30,WNW,288,1.0,2.0,41,0.00,,,0.00,weatherlink.com 1.10,2013-03-10 04:20:00,
2013-03-09 23:35:00,47.0,25.0,30.30,WNW,288,0.0,2.0,42,0.00,,,0.00,weatherlink.com 1.10,2013-03-10 04:35:00,
2013-03-09 23:50:00,46.6,24.0,30.31,WNW,288,0.0,1.0,42,0.00,,,0.00,weatherlink.com 1.10,2013-03-10 04:50:00,